Alborn, Minnesota
Current Conditions -  °F | °C
As of 3:36 AM on Saturday 25 Oct 2014 (Local Time) from KCOQ Reporting Station
Clear Clear  
Wind Chill: 52°   Ceiling: Unl
Heat Index: 52°   Visibility: 10mi
Dew Point: 34°   Wind: 12mph
Humidity: 50%   Direction: 270°W
Pressure: 29.85"   Gusts: NA
Location:  46.97°N, 92.58°W
Report Text: KCOQ 250836Z AUTO 27010KT 10SM CLR 11/01 A2985 RMK AO2
Loading
Personal Weather Stations






























Interactive Weather Map
Tropical Storm Tracking
New forecast layout! Learn more

10-Day Weather Forecast

Advertisements
Track Severe Weather on mobile